Time;durP1;ratioP1;P1;durP2;ratioP2;P2;SDS_P1;SDS_P2;PMS_P1;PMS_P2;Temp;Humidity;BMP_temperature;BMP_pressure;BME280_temperature;BME280_humidity;BME280_pressure;Samples;Min_cycle;Max_cycle;Signal;HPM_P1;HPM_P2
2024/01/31 00:00:38;;;;;;;4.50;1.20;;;;;;;;;;4927813;28;100117;-70
2024/01/31 00:03:04;;;;;;;4.15;1.10;;;;;;;;;;4928818;28;98344;-71
2024/01/31 00:05:31;;;;;;;7.68;1.40;;;;;;;;;;4928906;28;98513;-71
2024/01/31 00:07:58;;;;;;;4.57;1.38;;;;;;;;;;4928197;28;100271;-71
2024/01/31 00:10:24;;;;;;;5.50;1.23;;;;;;;;;;4922282;28;99850;-71
2024/01/31 00:12:51;;;;;;;5.38;1.20;;;;;;;;;;4912691;28;100579;-71
2024/01/31 00:15:17;;;;;;;3.42;1.00;;;;;;;;;;4928172;28;99887;-71
2024/01/31 00:17:44;;;;;;;4.93;1.10;;;;;;;;;;4944872;28;99024;-70
2024/01/31 00:20:11;;;;;;;3.70;1.15;;;;;;;;;;4927875;28;99251;-70
2024/01/31 00:22:38;;;;;;;4.47;1.35;;;;;;;;;;4928401;28;98827;-71
2024/01/31 00:25:06;;;;;;;8.93;1.60;;;;;;;;;;4928375;28;100161;-71
2024/01/31 00:27:32;;;;;;;7.70;1.40;;;;;;;;;;4928480;28;98590;-71
2024/01/31 00:29:59;;;;;;;5.53;1.20;;;;;;;;;;4928588;28;98537;-71
2024/01/31 00:32:25;;;;;;;3.85;1.02;;;;;;;;;;4928655;28;99402;-71
2024/01/31 00:34:52;;;;;;;3.92;1.10;;;;;;;;;;4927165;28;100075;-71
2024/01/31 00:37:18;;;;;;;7.18;1.20;;;;;;;;;;4928383;28;98839;-70
2024/01/31 00:39:48;;;;;;;6.55;1.30;;;;;;;;;;4931133;28;98962;-71
2024/01/31 00:42:15;;;;;;;6.95;1.27;;;;;;;;;;4928410;28;98806;-70
2024/01/31 00:44:42;;;;;;;6.25;1.23;;;;;;;;;;4940644;28;99278;-70
2024/01/31 00:47:09;;;;;;;4.82;1.13;;;;;;;;;;4947533;28;99250;-70
2024/01/31 00:49:35;;;;;;;3.28;1.10;;;;;;;;;;4947370;28;98814;-71
2024/01/31 00:52:02;;;;;;;3.78;0.90;;;;;;;;;;4946890;28;99282;-70
2024/01/31 00:54:29;;;;;;;4.07;1.08;;;;;;;;;;4927755;28;100685;-70
2024/01/31 00:56:56;;;;;;;4.63;1.10;;;;;;;;;;4927158;28;99230;-70
2024/01/31 00:59:23;;;;;;;2.30;1.02;;;;;;;;;;4930898;28;99730;-70
2024/01/31 01:01:50;;;;;;;4.85;1.40;;;;;;;;;;4927798;28;98908;-70
2024/01/31 01:04:16;;;;;;;7.45;1.02;;;;;;;;;;4927666;28;99373;-70
2024/01/31 01:06:43;;;;;;;4.18;1.05;;;;;;;;;;4926861;28;99623;-71
2024/01/31 01:09:10;;;;;;;;;;;;;;;;;;4928335;28;98757;-71
2024/01/31 01:11:37;;;;;;;3.63;1.10;;;;;;;;;;4928276;28;121830;-71
2024/01/31 01:14:04;;;;;;;4.05;1.17;;;;;;;;;;4927096;28;100190;-71
2024/01/31 01:16:30;;;;;;;4.82;1.20;;;;;;;;;;4927692;28;98046;-71
2024/01/31 01:18:57;;;;;;;4.32;1.30;;;;;;;;;;4926445;28;99366;-71
2024/01/31 01:21:24;;;;;;;2.88;0.90;;;;;;;;;;4930356;28;99000;-71
2024/01/31 01:23:50;;;;;;;6.35;1.10;;;;;;;;;;4926992;28;99610;-71
2024/01/31 01:26:19;;;;;;;4.30;1.20;;;;;;;;;;4926588;28;99069;-71
2024/01/31 01:28:46;;;;;;;3.28;1.00;;;;;;;;;;4926441;28;98975;-71
2024/01/31 01:31:13;;;;;;;4.05;1.13;;;;;;;;;;4926717;28;100919;-71
2024/01/31 01:33:40;;;;;;;6.97;1.10;;;;;;;;;;4926678;28;99349;-70
2024/01/31 01:36:07;;;;;;;5.10;1.02;;;;;;;;;;4939750;28;98660;-70
2024/01/31 01:38:35;;;;;;;3.60;1.25;;;;;;;;;;4939337;28;99367;-70
2024/01/31 01:41:02;;;;;;;4.18;1.00;;;;;;;;;;4940725;28;99394;-70
2024/01/31 01:43:29;;;;;;;8.30;1.10;;;;;;;;;;4950186;28;98808;-70
2024/01/31 01:46:02;;;;;;;4.32;1.20;;;;;;;;;;4946194;28;99283;-70
2024/01/31 01:48:28;;;;;;;3.90;0.90;;;;;;;;;;4943772;28;99280;-71
2024/01/31 01:50:55;;;;;;;3.60;0.90;;;;;;;;;;4926831;28;100955;-70
2024/01/31 01:53:22;;;;;;;5.25;1.10;;;;;;;;;;4926583;28;99280;-71
2024/01/31 01:55:48;;;;;;;3.17;0.90;;;;;;;;;;4927321;28;98713;-70
2024/01/31 01:58:15;;;;;;;5.88;0.90;;;;;;;;;;4927377;28;99000;-71
2024/01/31 02:00:43;;;;;;;4.05;0.90;;;;;;;;;;4925337;28;100480;-71
2024/01/31 02:03:10;;;;;;;4.82;1.10;;;;;;;;;;4927222;28;99480;-71
2024/01/31 02:05:38;;;;;;;3.92;0.90;;;;;;;;;;4929982;28;100042;-71
2024/01/31 02:08:05;;;;;;;2.28;0.98;;;;;;;;;;4927091;28;98995;-71
2024/01/31 02:10:32;;;;;;;3.10;0.90;;;;;;;;;;4926504;28;100308;-71
2024/01/31 02:12:59;;;;;;;8.15;1.20;;;;;;;;;;4925628;28;104639;-71
2024/01/31 02:15:25;;;;;;;3.60;0.90;;;;;;;;;;4946124;28;99556;-71
2024/01/31 02:17:52;;;;;;;2.40;0.85;;;;;;;;;;4933651;28;99435;-71
2024/01/31 02:20:18;;;;;;;3.00;0.90;;;;;;;;;;4908964;28;99722;-71
2024/01/31 02:22:48;;;;;;;2.30;0.82;;;;;;;;;;4926332;28;99029;-71
2024/01/31 02:25:15;;;;;;;6.95;1.05;;;;;;;;;;4926969;28;99092;-71
2024/01/31 02:27:41;;;;;;;5.32;0.82;;;;;;;;;;4931750;28;99035;-71
2024/01/31 02:30:08;;;;;;;3.47;0.80;;;;;;;;;;4930866;28;99551;-69
2024/01/31 02:32:35;;;;;;;5.53;0.93;;;;;;;;;;4911755;28;99261;-70
2024/01/31 02:35:02;;;;;;;4.25;0.90;;;;;;;;;;4929739;28;98578;-70
2024/01/31 02:37:29;;;;;;;4.95;0.80;;;;;;;;;;4930860;28;100431;-70
2024/01/31 02:39:55;;;;;;;4.90;1.10;;;;;;;;;;4931005;28;99017;-70
2024/01/31 02:42:22;;;;;;;8.02;1.08;;;;;;;;;;4929450;28;98564;-69
2024/01/31 02:44:48;;;;;;;8.27;1.27;;;;;;;;;;4929356;28;98786;-70
2024/01/31 02:47:15;;;;;;;5.97;1.00;;;;;;;;;;4929415;28;100172;-70
2024/01/31 02:49:41;;;;;;;4.82;1.20;;;;;;;;;;4944481;28;98886;-70
2024/01/31 02:52:08;;;;;;;5.25;1.00;;;;;;;;;;4948627;28;100589;-72
2024/01/31 02:54:34;;;;;;;2.95;0.75;;;;;;;;;;4949009;28;97963;-71
2024/01/31 02:57:01;;;;;;;6.25;1.00;;;;;;;;;;4948983;28;98941;-71
2024/01/31 02:59:27;;;;;;;3.95;1.00;;;;;;;;;;4948067;28;106031;-71
2024/01/31 03:01:54;;;;;;;5.88;1.20;;;;;;;;;;4948390;28;99311;-71
2024/01/31 03:04:20;;;;;;;5.40;0.90;;;;;;;;;;4955051;28;100208;-71
2024/01/31 03:06:47;;;;;;;4.35;1.15;;;;;;;;;;4940265;28;100231;-71
2024/01/31 03:09:14;;;;;;;5.65;0.85;;;;;;;;;;4952435;28;98478;-71
2024/01/31 03:11:41;;;;;;;2.30;0.73;;;;;;;;;;4948333;28;100275;-71
2024/01/31 03:14:07;;;;;;;4.55;0.82;;;;;;;;;;4951731;28;98578;-71
2024/01/31 03:16:39;;;;;;;4.68;1.00;;;;;;;;;;4948037;28;99948;-71
2024/01/31 03:19:06;;;;;;;3.22;0.85;;;;;;;;;;4948943;28;99469;-71
2024/01/31 03:21:33;;;;;;;3.33;1.00;;;;;;;;;;4961141;28;98631;-71
2024/01/31 03:24:00;;;;;;;4.40;0.88;;;;;;;;;;4968602;28;99200;-71
2024/01/31 03:26:26;;;;;;;6.50;1.25;;;;;;;;;;4967291;28;99941;-71
2024/01/31 03:28:54;;;;;;;3.58;0.93;;;;;;;;;;4949327;28;98786;-71
2024/01/31 03:31:20;;;;;;;;;;;;;;;;;;4951243;28;99891;-71
2024/01/31 03:33:47;;;;;;;5.43;1.10;;;;;;;;;;4949112;28;109003;-71
2024/01/31 03:36:14;;;;;;;4.57;0.85;;;;;;;;;;4948179;28;98929;-71
2024/01/31 03:38:41;;;;;;;3.60;0.77;;;;;;;;;;4937897;28;99643;-71
2024/01/31 03:41:08;;;;;;;3.42;1.10;;;;;;;;;;4943117;28;98857;-70
2024/01/31 03:43:34;;;;;;;2.20;1.00;;;;;;;;;;4948967;28;98774;-71
2024/01/31 03:46:04;;;;;;;4.75;0.90;;;;;;;;;;4947853;28;99225;-72
2024/01/31 03:48:30;;;;;;;3.35;0.80;;;;;;;;;;4947970;28;99021;-72
2024/01/31 03:50:58;;;;;;;6.25;0.82;;;;;;;;;;4946487;28;99912;-71
2024/01/31 03:53:25;;;;;;;1.88;0.73;;;;;;;;;;4951014;28;99850;-71
2024/01/31 03:55:52;;;;;;;2.58;0.88;;;;;;;;;;4947543;28;98866;-72
2024/01/31 03:58:18;;;;;;;1.40;0.65;;;;;;;;;;4947716;28;100471;-71
2024/01/31 04:00:45;;;;;;;2.72;0.70;;;;;;;;;;4947040;28;98857;-72
2024/01/31 04:03:11;;;;;;;4.28;0.90;;;;;;;;;;4946555;28;100319;-71
2024/01/31 04:05:38;;;;;;;4.95;1.00;;;;;;;;;;4964057;28;99631;-71
2024/01/31 04:08:05;;;;;;;3.30;0.80;;;;;;;;;;4967853;28;98083;-71
2024/01/31 04:10:31;;;;;;;6.05;0.85;;;;;;;;;;4952847;28;99154;-70
2024/01/31 04:12:58;;;;;;;2.78;0.90;;;;;;;;;;4952990;28;104920;-70
2024/01/31 04:15:24;;;;;;;1.90;0.70;;;;;;;;;;4970824;28;99522;-70
2024/01/31 04:17:51;;;;;;;3.63;0.80;;;;;;;;;;4967839;28;99092;-70
2024/01/31 04:20:17;;;;;;;2.55;0.75;;;;;;;;;;4968015;28;105158;-70
2024/01/31 04:22:44;;;;;;;1.25;0.70;;;;;;;;;;4968155;28;99025;-70
2024/01/31 04:25:10;;;;;;;5.82;0.98;;;;;;;;;;4931202;28;99332;-70
2024/01/31 04:27:37;;;;;;;1.98;0.80;;;;;;;;;;4947683;28;98912;-70
2024/01/31 04:30:04;;;;;;;2.95;0.70;;;;;;;;;;4948619;28;99796;-70
2024/01/31 04:32:30;;;;;;;5.05;0.93;;;;;;;;;;4947686;28;98622;-70
2024/01/31 04:34:57;;;;;;;5.68;0.77;;;;;;;;;;4947018;28;98922;-70
2024/01/31 04:37:23;;;;;;;6.70;1.20;;;;;;;;;;4950352;28;99232;-70
2024/01/31 04:39:51;;;;;;;4.22;1.02;;;;;;;;;;4947006;28;99832;-70
2024/01/31 04:42:18;;;;;;;3.25;0.82;;;;;;;;;;4947397;28;99822;-70
2024/01/31 04:44:45;;;;;;;5.65;1.00;;;;;;;;;;4945440;28;99189;-70
2024/01/31 04:47:12;;;;;;;4.65;0.90;;;;;;;;;;4947320;28;98727;-70
2024/01/31 04:49:39;;;;;;;3.38;0.95;;;;;;;;;;4946623;28;99082;-70
2024/01/31 04:52:06;;;;;;;4.18;0.90;;;;;;;;;;4946515;28;100189;-70
2024/01/31 04:54:32;;;;;;;4.70;0.93;;;;;;;;;;4947362;28;99143;-70
2024/01/31 04:56:59;;;;;;;5.25;0.70;;;;;;;;;;4950029;28;103911;-70
2024/01/31 04:59:25;;;;;;;3.92;0.80;;;;;;;;;;4947107;28;98865;-70
2024/01/31 05:01:54;;;;;;;2.30;0.77;;;;;;;;;;4946687;28;100082;-70
2024/01/31 05:04:20;;;;;;;3.63;1.02;;;;;;;;;;4952225;28;99894;-70
2024/01/31 05:06:47;;;;;;;2.15;0.60;;;;;;;;;;4951413;28;98780;-70
2024/01/31 05:09:14;;;;;;;3.08;0.90;;;;;;;;;;4947328;28;98935;-70
2024/01/31 05:11:40;;;;;;;2.50;0.70;;;;;;;;;;4946300;28;100133;-70
2024/01/31 05:14:07;;;;;;;3.38;0.70;;;;;;;;;;4961686;28;98719;-70
2024/01/31 05:16:38;;;;;;;2.42;0.77;;;;;;;;;;4948166;28;99944;-70
2024/01/31 05:19:06;;;;;;;2.75;0.70;;;;;;;;;;4969369;28;99244;-70
2024/01/31 05:21:33;;;;;;;2.10;0.70;;;;;;;;;;4947324;28;99283;-70
2024/01/31 05:23:59;;;;;;;3.63;0.80;;;;;;;;;;4946587;28;100250;-70
2024/01/31 05:26:26;;;;;;;3.97;0.90;;;;;;;;;;4946396;28;98832;-70
2024/01/31 05:28:52;;;;;;;5.20;0.80;;;;;;;;;;4945391;28;100225;-70
2024/01/31 05:31:19;;;;;;;6.13;1.00;;;;;;;;;;4946385;28;99145;-69
2024/01/31 05:33:46;;;;;;;1.90;0.70;;;;;;;;;;4947166;28;98862;-70
2024/01/31 05:36:12;;;;;;;4.28;0.80;;;;;;;;;;4946265;28;98884;-70
2024/01/31 05:38:39;;;;;;;2.13;0.73;;;;;;;;;;4928342;28;99266;-70
2024/01/31 05:41:06;;;;;;;3.15;0.63;;;;;;;;;;4949607;28;98902;-70
2024/01/31 05:43:32;;;;;;;4.43;1.00;;;;;;;;;;4945808;28;99345;-70
2024/01/31 05:45:59;;;;;;;3.78;0.80;;;;;;;;;;4947847;28;97822;-71
2024/01/31 05:48:25;;;;;;;2.83;0.85;;;;;;;;;;4948270;28;99165;-74
2024/01/31 05:50:52;;;;;;;6.40;0.70;;;;;;;;;;4965001;28;100113;-74
2024/01/31 05:53:18;;;;;;;5.50;1.00;;;;;;;;;;4967287;28;99641;-75
2024/01/31 05:55:45;;;;;;;3.67;0.80;;;;;;;;;;4957630;28;100788;-73
2024/01/31 05:58:12;;;;;;;5.05;0.82;;;;;;;;;;4945973;28;101996;-73
2024/01/31 06:00:38;;;;;;;4.97;0.85;;;;;;;;;;4946344;28;99058;-73
2024/01/31 06:03:05;;;;;;;3.92;0.75;;;;;;;;;;4966045;28;98864;-74
2024/01/31 06:05:31;;;;;;;3.70;0.80;;;;;;;;;;4968962;28;98899;-73
2024/01/31 06:07:58;;;;;;;4.28;1.02;;;;;;;;;;4970013;28;99388;-73
2024/01/31 06:10:25;;;;;;;3.17;0.80;;;;;;;;;;4969365;28;99342;-75
2024/01/31 06:12:52;;;;;;;2.78;0.70;;;;;;;;;;4963474;28;98792;-73
2024/01/31 06:15:20;;;;;;;4.18;0.80;;;;;;;;;;4949620;28;100020;-73
2024/01/31 06:17:47;;;;;;;4.32;0.77;;;;;;;;;;4948650;28;101917;-73
2024/01/31 06:20:16;;;;;;;4.18;0.85;;;;;;;;;;4928904;28;98874;-74
2024/01/31 06:22:43;;;;;;;9.02;0.90;;;;;;;;;;4947834;28;98983;-73
2024/01/31 06:25:10;;;;;;;2.78;0.75;;;;;;;;;;4953197;28;100488;-73
2024/01/31 06:27:36;;;;;;;4.65;0.88;;;;;;;;;;4949637;28;98710;-74
2024/01/31 06:30:04;;;;;;;4.88;0.80;;;;;;;;;;4952619;28;99145;-74
2024/01/31 06:32:35;;;;;;;2.60;0.80;;;;;;;;;;4952637;28;98538;-75
2024/01/31 06:35:02;;;;;;;3.72;0.80;;;;;;;;;;4952072;28;103609;-73
2024/01/31 06:37:29;;;;;;;2.35;0.77;;;;;;;;;;4952200;28;99179;-73
2024/01/31 06:39:56;;;;;;;3.58;0.82;;;;;;;;;;4968059;28;98599;-73
2024/01/31 06:42:22;;;;;;;4.97;0.77;;;;;;;;;;4968618;28;101126;-74
2024/01/31 06:44:49;;;;;;;6.32;1.00;;;;;;;;;;4937112;28;100381;-74
2024/01/31 06:47:15;;;;;;;3.25;1.00;;;;;;;;;;4952446;28;98947;-74
2024/01/31 06:49:42;;;;;;;4.32;1.08;;;;;;;;;;4947982;28;100270;-74
2024/01/31 06:52:10;;;;;;;3.75;0.90;;;;;;;;;;4949146;28;98480;-74
2024/01/31 06:54:37;;;;;;;5.38;1.00;;;;;;;;;;4948276;28;100240;-74
2024/01/31 06:57:03;;;;;;;2.28;0.82;;;;;;;;;;4948639;28;100610;-75
2024/01/31 06:59:30;;;;;;;2.80;0.90;;;;;;;;;;4949981;28;98445;-74
2024/01/31 07:01:57;;;;;;;2.05;0.70;;;;;;;;;;4949118;28;98885;-74
2024/01/31 07:04:23;;;;;;;1.65;1.00;;;;;;;;;;4955657;28;99118;-74
2024/01/31 07:06:50;;;;;;;4.55;0.98;;;;;;;;;;4971201;28;99219;-74
2024/01/31 07:09:16;;;;;;;3.53;1.17;;;;;;;;;;4968462;28;99699;-74
2024/01/31 07:11:43;;;;;;;2.60;0.93;;;;;;;;;;4968243;28;98489;-74
2024/01/31 07:14:09;;;;;;;6.93;0.90;;;;;;;;;;4964431;28;98759;-75
2024/01/31 07:16:36;;;;;;;4.70;1.10;;;;;;;;;;4967727;28;99366;-76
2024/01/31 07:19:03;;;;;;;2.75;0.93;;;;;;;;;;4950661;28;98542;-76
2024/01/31 07:21:29;;;;;;;4.88;1.27;;;;;;;;;;4949066;28;98984;-75
2024/01/31 07:23:56;;;;;;;4.00;1.13;;;;;;;;;;4953971;28;98477;-75
2024/01/31 07:26:26;;;;;;;7.00;1.00;;;;;;;;;;4953066;28;98802;-75
2024/01/31 07:28:53;;;;;;;5.45;1.20;;;;;;;;;;4953615;28;100414;-75
2024/01/31 07:31:20;;;;;;;6.22;1.17;;;;;;;;;;4948475;28;99797;-75
2024/01/31 07:33:46;;;;;;;3.85;1.10;;;;;;;;;;4948829;28;100923;-74
2024/01/31 07:36:13;;;;;;;6.50;1.50;;;;;;;;;;4948284;28;99064;-74
2024/01/31 07:38:45;;;;;;;8.82;1.38;;;;;;;;;;4948580;28;99346;-74
2024/01/31 07:41:12;;;;;;;6.07;1.10;;;;;;;;;;4947932;28;100384;-74
2024/01/31 07:43:39;;;;;;;7.95;1.08;;;;;;;;;;4948100;28;99173;-74
2024/01/31 07:46:09;;;;;;;7.28;1.27;;;;;;;;;;4947739;28;98953;-74
2024/01/31 07:48:36;;;;;;;7.70;1.40;;;;;;;;;;4947584;28;99827;-75
2024/01/31 07:51:04;;;;;;;8.52;1.20;;;;;;;;;;4951196;28;99876;-74
2024/01/31 07:53:31;;;;;;;3.95;1.00;;;;;;;;;;4914371;28;103159;-74
2024/01/31 07:55:58;;;;;;;3.78;0.80;;;;;;;;;;4947181;28;100939;-74
2024/01/31 07:58:30;;;;;;;1.85;0.82;;;;;;;;;;4948524;28;99363;-74
2024/01/31 08:00:57;;;;;;;2.83;0.85;;;;;;;;;;4946796;28;99908;-74
2024/01/31 08:03:23;;;;;;;3.78;0.95;;;;;;;;;;4946319;28;99113;-74
2024/01/31 08:05:50;;;;;;;2.35;1.00;;;;;;;;;;4965633;28;98946;-72
2024/01/31 08:08:16;;;;;;;2.58;0.80;;;;;;;;;;4964121;28;99832;-75
2024/01/31 08:10:43;;;;;;;2.65;0.90;;;;;;;;;;4947824;28;99302;-73
2024/01/31 08:13:10;;;;;;;3.13;0.80;;;;;;;;;;4957166;28;98060;-75
2024/01/31 08:15:36;;;;;;;4.03;0.98;;;;;;;;;;4946790;28;99221;-75
2024/01/31 08:18:03;;;;;;;1.92;0.77;;;;;;;;;;4947508;28;98599;-75
2024/01/31 08:20:30;;;;;;;1.98;1.00;;;;;;;;;;4947160;28;100016;-75
2024/01/31 08:22:57;;;;;;;2.30;0.90;;;;;;;;;;4945715;28;99116;-73
2024/01/31 08:25:24;;;;;;;3.78;1.00;;;;;;;;;;4946363;28;98988;-75
2024/01/31 08:27:51;;;;;;;3.50;0.93;;;;;;;;;;4929809;28;98814;-75
2024/01/31 08:30:18;;;;;;;1.50;1.00;;;;;;;;;;4946396;28;99460;-75
2024/01/31 08:32:46;;;;;;;4.13;1.20;;;;;;;;;;4946553;28;99079;-74
2024/01/31 08:35:13;;;;;;;3.90;1.10;;;;;;;;;;4949684;28;99040;-74
2024/01/31 08:37:39;;;;;;;6.60;1.17;;;;;;;;;;4947362;28;98036;-72
2024/01/31 08:40:08;;;;;;;2.40;0.90;;;;;;;;;;4953535;28;99165;-74
2024/01/31 08:42:38;;;;;;;2.85;1.20;;;;;;;;;;4964368;28;100398;-74
2024/01/31 08:45:06;;;;;;;4.35;1.20;;;;;;;;;;4948180;28;100190;-73
2024/01/31 08:47:33;;;;;;;3.42;1.00;;;;;;;;;;4943981;28;99498;-73
2024/01/31 08:49:59;;;;;;;3.72;1.17;;;;;;;;;;4943383;28;99585;-73
2024/01/31 08:52:26;;;;;;;2.92;1.20;;;;;;;;;;4943814;28;100752;-73
2024/01/31 08:54:53;;;;;;;1.42;1.00;;;;;;;;;;4944202;28;99179;-72
2024/01/31 08:57:20;;;;;;;1.60;0.80;;;;;;;;;;4947176;28;99233;-72
2024/01/31 08:59:46;;;;;;;2.67;0.90;;;;;;;;;;4945423;28;99798;-72
2024/01/31 09:02:13;;;;;;;2.78;0.88;;;;;;;;;;4946072;28;98544;-72
2024/01/31 09:04:40;;;;;;;2.20;1.02;;;;;;;;;;4949639;28;99165;-72
2024/01/31 09:07:07;;;;;;;2.63;1.05;;;;;;;;;;4944997;28;99814;-72
2024/01/31 09:09:38;;;;;;;2.75;1.00;;;;;;;;;;4925979;28;100870;-72
2024/01/31 09:12:05;;;;;;;2.60;1.10;;;;;;;;;;4945136;28;98556;-72
2024/01/31 09:14:34;;;;;;;3.38;1.20;;;;;;;;;;4962748;28;98933;-72
2024/01/31 09:17:01;;;;;;;2.40;1.13;;;;;;;;;;4966085;28;103660;-72
2024/01/31 09:19:28;;;;;;;2.67;0.98;;;;;;;;;;4935961;28;105276;-72
2024/01/31 09:21:55;;;;;;;2.33;1.05;;;;;;;;;;4944781;28;99855;-72
2024/01/31 09:24:21;;;;;;;2.05;0.93;;;;;;;;;;4945184;28;98535;-72
2024/01/31 09:26:48;;;;;;;2.67;1.00;;;;;;;;;;4945106;28;99062;-72
2024/01/31 09:29:14;;;;;;;2.97;1.10;;;;;;;;;;4944801;28;99127;-72
2024/01/31 09:31:41;;;;;;;2.97;1.00;;;;;;;;;;4944960;28;98553;-72
2024/01/31 09:34:08;;;;;;;3.63;1.02;;;;;;;;;;4943414;28;99307;-72
2024/01/31 09:36:35;;;;;;;;;;;;;;;;;;4946433;28;99304;-72
2024/01/31 09:39:03;;;;;;;4.72;1.00;;;;;;;;;;4944160;28;99197;-72
2024/01/31 09:41:29;;;;;;;2.47;0.93;;;;;;;;;;4947698;28;99050;-72
2024/01/31 09:43:56;;;;;;;2.47;1.00;;;;;;;;;;4948917;28;99114;-72
2024/01/31 09:46:23;;;;;;;1.88;0.80;;;;;;;;;;4948317;28;99834;-72
2024/01/31 09:48:49;;;;;;;4.13;0.98;;;;;;;;;;4947043;28;100062;-71
2024/01/31 09:51:17;;;;;;;2.50;1.10;;;;;;;;;;4948431;28;98358;-72
2024/01/31 09:53:44;;;;;;;2.80;1.00;;;;;;;;;;4948188;28;99356;-72
2024/01/31 09:56:11;;;;;;;1.08;0.82;;;;;;;;;;4947630;28;100553;-72
2024/01/31 09:58:38;;;;;;;3.63;1.20;;;;;;;;;;4946956;28;99787;-71
2024/01/31 10:01:06;;;;;;;2.80;0.90;;;;;;;;;;4950998;28;100589;-72
2024/01/31 10:03:46;;;;;;;3.28;1.00;;;;;;;;;;4949429;28;98478;-72
2024/01/31 10:06:13;;;;;;;2.25;1.00;;;;;;;;;;4962149;28;99827;-71
2024/01/31 10:08:40;;;;;;;4.68;0.93;;;;;;;;;;4947260;28;99051;-71
2024/01/31 10:11:06;;;;;;;2.75;1.08;;;;;;;;;;4947585;28;98482;-73
2024/01/31 10:13:33;;;;;;;2.22;1.10;;;;;;;;;;4958198;28;99088;-74
2024/01/31 10:16:00;;;;;;;2.92;1.02;;;;;;;;;;4955020;28;98884;-73
2024/01/31 10:18:28;;;;;;;5.95;1.20;;;;;;;;;;4948408;28;99167;-73
2024/01/31 10:20:56;;;;;;;2.92;1.10;;;;;;;;;;4948316;28;99818;-73
2024/01/31 10:23:23;;;;;;;5.80;1.25;;;;;;;;;;4951065;28;107129;-74
2024/01/31 10:25:50;;;;;;;3.70;1.30;;;;;;;;;;4948466;28;99488;-73
2024/01/31 10:28:20;;;;;;;4.00;1.25;;;;;;;;;;4947668;28;99199;-73
2024/01/31 10:30:49;;;;;;;3.42;1.30;;;;;;;;;;4947323;28;99037;-73
2024/01/31 10:33:16;;;;;;;4.30;1.30;;;;;;;;;;4947196;28;99135;-73
2024/01/31 10:35:45;;;;;;;3.10;1.10;;;;;;;;;;4946807;28;99516;-74
2024/01/31 10:38:32;;;;;;;7.93;1.58;;;;;;;;;;4932930;28;99005;-71
2024/01/31 10:40:59;;;;;;;;;;;;;;;;;;4948599;28;104412;-70
2024/01/31 10:43:27;;;;;;;11.68;2.00;;;;;;;;;;4947869;28;126296;-71
2024/01/31 10:45:53;;;;;;;6.18;2.08;;;;;;;;;;4951766;28;98919;-72
2024/01/31 10:48:20;;;;;;;7.32;2.05;;;;;;;;;;4946450;28;100342;-74
2024/01/31 10:50:47;;;;;;;7.32;2.13;;;;;;;;;;4945995;28;99176;-73
2024/01/31 10:53:14;;;;;;;5.80;1.88;;;;;;;;;;4947632;28;100064;-74
2024/01/31 10:55:41;;;;;;;;;;;;;;;;;;4947721;28;99351;-74
2024/01/31 10:58:09;;;;;;;6.50;2.10;;;;;;;;;;4948333;28;112274;-75
2024/01/31 11:00:36;;;;;;;8.13;2.20;;;;;;;;;;4946768;28;98935;-74
2024/01/31 11:03:03;;;;;;;6.68;2.50;;;;;;;;;;4946989;28;100138;-74
2024/01/31 11:05:31;;;;;;;6.70;2.20;;;;;;;;;;4963095;28;99331;-74
2024/01/31 11:07:58;;;;;;;7.72;2.10;;;;;;;;;;4969807;28;99101;-74
2024/01/31 11:10:27;;;;;;;8.63;2.30;;;;;;;;;;4965996;28;100617;-75
2024/01/31 11:13:00;;;;;;;6.35;2.05;;;;;;;;;;4952102;28;99257;-74
2024/01/31 11:15:27;;;;;;;6.55;2.30;;;;;;;;;;4965643;28;99311;-74
2024/01/31 11:18:20;;;;;;;7.07;2.25;;;;;;;;;;4965606;28;99082;-74
2024/01/31 11:20:49;;;;;;;7.03;2.10;;;;;;;;;;4943510;28;99119;-73
2024/01/31 11:23:17;;;;;;;6.30;2.03;;;;;;;;;;4946999;28;100066;-73
2024/01/31 11:25:44;;;;;;;6.82;2.10;;;;;;;;;;4946811;28;98714;-73
2024/01/31 11:28:11;;;;;;;;;;;;;;;;;;4950697;28;98923;-72
2024/01/31 11:30:40;;;;;;;8.55;2.22;;;;;;;;;;4946309;28;112483;-72
2024/01/31 11:33:08;;;;;;;7.82;2.28;;;;;;;;;;4945172;28;98542;-73
2024/01/31 11:35:35;;;;;;;5.82;2.28;;;;;;;;;;4945766;28;100712;-74
2024/01/31 11:38:02;;;;;;;7.90;2.60;;;;;;;;;;4949483;28;99849;-74
2024/01/31 11:40:28;;;;;;;7.57;2.55;;;;;;;;;;4951932;28;99614;-73
2024/01/31 11:42:56;;;;;;;8.13;2.53;;;;;;;;;;4928173;28;101489;-71
2024/01/31 11:45:25;;;;;;;6.22;2.30;;;;;;;;;;4947043;28;99048;-73
2024/01/31 11:47:55;;;;;;;7.75;2.10;;;;;;;;;;4946354;28;99894;-73
2024/01/31 11:50:22;;;;;;;7.40;2.28;;;;;;;;;;4949259;28;100096;-73
2024/01/31 11:52:49;;;;;;;6.38;2.25;;;;;;;;;;4946761;28;100285;-73
2024/01/31 11:55:25;;;;;;;7.18;2.72;;;;;;;;;;4948028;28;98522;-72
2024/01/31 11:57:52;;;;;;;6.55;2.60;;;;;;;;;;4949153;28;98810;-73
2024/01/31 12:00:20;;;;;;;7.55;2.85;;;;;;;;;;4947607;28;99127;-71
2024/01/31 12:02:47;;;;;;;9.27;2.53;;;;;;;;;;4947402;28;100948;-72
2024/01/31 12:05:14;;;;;;;8.25;2.97;;;;;;;;;;4961214;28;99185;-72
2024/01/31 12:07:41;;;;;;;8.43;2.53;;;;;;;;;;4961436;28;99903;-72
2024/01/31 12:10:07;;;;;;;6.65;2.33;;;;;;;;;;4946363;28;99250;-73
2024/01/31 12:12:41;;;;;;;7.00;2.40;;;;;;;;;;4950692;28;98643;-72
2024/01/31 12:15:11;;;;;;;6.82;2.47;;;;;;;;;;4964616;28;100338;-73
2024/01/31 12:17:38;;;;;;;6.55;2.53;;;;;;;;;;4961816;28;98839;-73
2024/01/31 12:20:08;;;;;;;6.55;2.67;;;;;;;;;;4964513;28;98821;-73
2024/01/31 12:22:36;;;;;;;7.53;2.63;;;;;;;;;;4949090;28;100360;-73
2024/01/31 12:25:03;;;;;;;7.18;2.60;;;;;;;;;;4945592;28;99041;-73
2024/01/31 12:27:30;;;;;;;5.78;2.25;;;;;;;;;;4945474;28;99890;-72
2024/01/31 12:29:57;;;;;;;7.78;2.70;;;;;;;;;;4945499;28;99208;-73
2024/01/31 12:32:24;;;;;;;6.40;2.60;;;;;;;;;;4945720;28;98709;-74
2024/01/31 12:34:50;;;;;;;6.53;2.72;;;;;;;;;;4952567;28;99839;-73
2024/01/31 12:37:17;;;;;;;7.43;2.90;;;;;;;;;;4947257;28;98904;-72
2024/01/31 12:39:44;;;;;;;7.18;2.97;;;;;;;;;;4945571;28;100100;-73
2024/01/31 12:42:11;;;;;;;6.70;2.55;;;;;;;;;;4927346;28;99132;-74
2024/01/31 12:44:38;;;;;;;5.63;2.58;;;;;;;;;;4945268;28;98150;-74
2024/01/31 12:47:08;;;;;;;6.05;2.22;;;;;;;;;;4945363;28;99099;-74
2024/01/31 12:49:38;;;;;;;6.45;2.50;;;;;;;;;;4944601;28;99154;-73
2024/01/31 12:52:05;;;;;;;8.38;3.15;;;;;;;;;;4945129;28;99554;-74
2024/01/31 12:54:32;;;;;;;6.15;2.40;;;;;;;;;;4944749;28;101191;-74
2024/01/31 12:56:58;;;;;;;5.97;2.40;;;;;;;;;;4947852;28;105019;-73
2024/01/31 12:59:25;;;;;;;6.70;2.58;;;;;;;;;;4945096;28;99906;-73
2024/01/31 13:01:51;;;;;;;5.70;2.42;;;;;;;;;;4944460;28;99266;-74
2024/01/31 13:04:18;;;;;;;6.65;2.53;;;;;;;;;;4950795;28;98548;-73
2024/01/31 13:06:45;;;;;;;5.80;1.92;;;;;;;;;;4964029;28;98742;-74
2024/01/31 13:09:13;;;;;;;6.03;2.60;;;;;;;;;;4952550;28;99429;-74
2024/01/31 13:11:40;;;;;;;5.97;2.55;;;;;;;;;;4944113;28;99389;-73
2024/01/31 13:14:06;;;;;;;5.80;2.30;;;;;;;;;;4959543;28;98818;-74
2024/01/31 13:16:33;;;;;;;;;;;;;;;;;;4957128;28;100929;-74
2024/01/31 13:19:08;;;;;;;5.28;1.90;;;;;;;;;;4947370;28;98636;-74
2024/01/31 13:21:34;;;;;;;6.15;1.90;;;;;;;;;;4942578;28;101763;-74
2024/01/31 13:24:01;;;;;;;4.95;2.08;;;;;;;;;;4927095;28;98532;-74
2024/01/31 13:26:32;;;;;;;5.82;2.10;;;;;;;;;;4910647;28;99926;-74
2024/01/31 13:28:59;;;;;;;8.65;2.20;;;;;;;;;;4944858;28;105359;-74
2024/01/31 13:31:26;;;;;;;5.82;2.33;;;;;;;;;;4944767;28;99131;-73
2024/01/31 13:33:52;;;;;;;6.25;2.10;;;;;;;;;;4944930;28;100192;-74
2024/01/31 13:36:20;;;;;;;3.92;1.90;;;;;;;;;;4947798;28;99746;-74
2024/01/31 13:38:48;;;;;;;5.80;2.10;;;;;;;;;;4947369;28;98810;-73
2024/01/31 13:41:16;;;;;;;3.92;1.80;;;;;;;;;;4943817;28;100145;-74
2024/01/31 13:43:43;;;;;;;6.13;1.88;;;;;;;;;;4944343;28;98993;-73
2024/01/31 13:46:09;;;;;;;5.78;2.00;;;;;;;;;;4944185;28;99006;-74
2024/01/31 13:48:36;;;;;;;6.20;1.90;;;;;;;;;;4943570;28;99934;-74
2024/01/31 13:51:03;;;;;;;4.30;1.80;;;;;;;;;;4943692;28;107730;-74
2024/01/31 13:53:30;;;;;;;4.85;1.70;;;;;;;;;;4943218;28;100410;-73
2024/01/31 13:55:56;;;;;;;5.25;1.77;;;;;;;;;;4944660;28;99163;-74
2024/01/31 13:58:23;;;;;;;3.83;1.70;;;;;;;;;;4944901;28;98191;-74
2024/01/31 14:00:49;;;;;;;6.53;1.70;;;;;;;;;;4946354;28;99166;-74
2024/01/31 14:03:16;;;;;;;5.47;1.85;;;;;;;;;;4944219;28;99263;-74
2024/01/31 14:05:42;;;;;;;2.97;1.60;;;;;;;;;;4960542;28;100078;-74
2024/01/31 14:08:09;;;;;;;6.75;2.10;;;;;;;;;;4960658;28;102575;-74
2024/01/31 14:10:35;;;;;;;6.05;2.65;;;;;;;;;;4943488;28;99261;-73
2024/01/31 14:13:02;;;;;;;8.25;3.20;;;;;;;;;;4949956;28;99175;-74
2024/01/31 14:15:29;;;;;;;7.43;3.10;;;;;;;;;;4944826;28;99506;-74
2024/01/31 14:17:55;;;;;;;7.57;3.22;;;;;;;;;;4944690;28;99310;-74
2024/01/31 14:20:22;;;;;;;8.85;3.35;;;;;;;;;;4963520;28;98814;-74
2024/01/31 14:22:48;;;;;;;8.95;3.20;;;;;;;;;;4950695;28;98341;-74
2024/01/31 14:25:20;;;;;;;7.32;2.92;;;;;;;;;;4947340;28;99026;-74
2024/01/31 14:27:47;;;;;;;8.35;3.35;;;;;;;;;;4946592;28;99204;-74
2024/01/31 14:30:14;;;;;;;7.32;3.28;;;;;;;;;;4947027;28;99431;-74
2024/01/31 14:32:40;;;;;;;8.15;3.72;;;;;;;;;;4946662;28;101210;-74
2024/01/31 14:35:07;;;;;;;11.05;3.38;;;;;;;;;;4946558;28;99202;-74
2024/01/31 14:37:34;;;;;;;7.90;3.15;;;;;;;;;;4947472;28;98564;-74
2024/01/31 14:40:00;;;;;;;7.43;3.15;;;;;;;;;;4965922;28;98909;-74